sensor_id;sensor_type;location;lat;lon;timestamp;P1;durP1;ratioP1;P2;durP2;ratioP2
55224;SDS011;41091;49.400;8.684;2022-12-22T00:00:45;2.00;;;1.23;;
55224;SDS011;41091;49.400;8.684;2022-12-22T00:03:29;2.95;;;1.52;;
55224;SDS011;41091;49.400;8.684;2022-12-22T00:06:16;1.63;;;1.25;;
55224;SDS011;41091;49.400;8.684;2022-12-22T00:09:00;1.00;;;1.00;;
55224;SDS011;41091;49.400;8.684;2022-12-22T00:11:44;2.60;;;1.02;;
55224;SDS011;41091;49.400;8.684;2022-12-22T00:14:28;1.83;;;0.90;;
55224;SDS011;41091;49.400;8.684;2022-12-22T00:17:23;1.27;;;0.98;;
55224;SDS011;41091;49.400;8.684;2022-12-22T00:20:15;4.53;;;3.17;;
55224;SDS011;41091;49.400;8.684;2022-12-22T00:23:01;15.35;;;3.95;;
55224;SDS011;41091;49.400;8.684;2022-12-22T00:25:47;1.15;;;0.95;;
55224;SDS011;41091;49.400;8.684;2022-12-22T00:28:31;1.63;;;1.42;;
55224;SDS011;41091;49.400;8.684;2022-12-22T00:31:17;2.17;;;1.23;;
55224;SDS011;41091;49.400;8.684;2022-12-22T00:34:01;1.33;;;1.20;;
55224;SDS011;41091;49.400;8.684;2022-12-22T00:36:47;2.53;;;1.40;;
55224;SDS011;41091;49.400;8.684;2022-12-22T00:39:31;0.90;;;0.90;;
55224;SDS011;41091;49.400;8.684;2022-12-22T00:42:15;1.08;;;1.00;;
55224;SDS011;41091;49.400;8.684;2022-12-22T00:44:59;3.13;;;1.33;;
55224;SDS011;41091;49.400;8.684;2022-12-22T00:47:43;1.00;;;1.00;;
55224;SDS011;41091;49.400;8.684;2022-12-22T00:50:33;2.08;;;1.58;;
55224;SDS011;41091;49.400;8.684;2022-12-22T00:53:18;1.25;;;1.15;;
55224;SDS011;41091;49.400;8.684;2022-12-22T00:56:03;1.52;;;1.02;;
55224;SDS011;41091;49.400;8.684;2022-12-22T00:58:49;1.05;;;1.05;;
55224;SDS011;41091;49.400;8.684;2022-12-22T01:01:36;1.40;;;1.30;;
55224;SDS011;41091;49.400;8.684;2022-12-22T01:04:20;2.75;;;1.23;;
55224;SDS011;41091;49.400;8.684;2022-12-22T01:07:04;4.05;;;1.33;;
55224;SDS011;41091;49.400;8.684;2022-12-22T01:09:49;1.15;;;1.00;;
55224;SDS011;41091;49.400;8.684;2022-12-22T01:12:38;1.58;;;1.30;;
55224;SDS011;41091;49.400;8.684;2022-12-22T01:15:23;1.17;;;1.02;;
55224;SDS011;41091;49.400;8.684;2022-12-22T01:18:07;1.65;;;1.30;;
55224;SDS011;41091;49.400;8.684;2022-12-22T01:20:51;2.40;;;1.05;;
55224;SDS011;41091;49.400;8.684;2022-12-22T01:23:35;1.50;;;1.20;;
55224;SDS011;41091;49.400;8.684;2022-12-22T01:26:20;3.92;;;1.25;;
55224;SDS011;41091;49.400;8.684;2022-12-22T01:29:04;1.48;;;1.40;;
55224;SDS011;41091;49.400;8.684;2022-12-22T01:31:48;2.45;;;1.38;;
55224;SDS011;41091;49.400;8.684;2022-12-22T01:34:32;4.18;;;1.35;;
55224;SDS011;41091;49.400;8.684;2022-12-22T01:37:16;9.68;;;1.45;;
55224;SDS011;41091;49.400;8.684;2022-12-22T01:40:01;3.10;;;1.40;;
55224;SDS011;41091;49.400;8.684;2022-12-22T01:42:44;1.35;;;1.17;;
55224;SDS011;41091;49.400;8.684;2022-12-22T01:45:29;1.20;;;1.10;;
55224;SDS011;41091;49.400;8.684;2022-12-22T01:48:19;4.13;;;1.23;;
55224;SDS011;41091;49.400;8.684;2022-12-22T01:51:05;1.20;;;1.10;;
55224;SDS011;41091;49.400;8.684;2022-12-22T01:53:52;1.65;;;1.20;;
55224;SDS011;41091;49.400;8.684;2022-12-22T01:56:37;7.30;;;1.30;;
55224;SDS011;41091;49.400;8.684;2022-12-22T01:59:21;2.97;;;1.17;;
55224;SDS011;41091;49.400;8.684;2022-12-22T02:02:05;0.63;;;0.63;;
55224;SDS011;41091;49.400;8.684;2022-12-22T02:04:50;1.50;;;1.40;;
55224;SDS011;41091;49.400;8.684;2022-12-22T02:29:12;0.98;;;0.93;;
55224;SDS011;41091;49.400;8.684;2022-12-22T02:31:59;2.50;;;1.52;;
55224;SDS011;41091;49.400;8.684;2022-12-22T02:34:43;4.05;;;1.15;;
55224;SDS011;41091;49.400;8.684;2022-12-22T02:49:20;2.55;;;1.20;;
55224;SDS011;41091;49.400;8.684;2022-12-22T02:52:15;1.27;;;1.20;;
55224;SDS011;41091;49.400;8.684;2022-12-22T02:55:06;0.70;;;0.70;;
55224;SDS011;41091;49.400;8.684;2022-12-22T02:57:53;0.73;;;0.73;;
55224;SDS011;41091;49.400;8.684;2022-12-22T03:00:37;2.35;;;0.93;;
55224;SDS011;41091;49.400;8.684;2022-12-22T03:03:21;0.85;;;0.82;;
55224;SDS011;41091;49.400;8.684;2022-12-22T03:06:05;1.00;;;1.00;;
55224;SDS011;41091;49.400;8.684;2022-12-22T03:08:49;0.75;;;0.73;;
55224;SDS011;41091;49.400;8.684;2022-12-22T03:11:33;1.13;;;0.75;;
55224;SDS011;41091;49.400;8.684;2022-12-22T03:14:20;3.38;;;0.70;;
55224;SDS011;41091;49.400;8.684;2022-12-22T03:17:03;0.80;;;0.80;;
55224;SDS011;41091;49.400;8.684;2022-12-22T03:19:47;0.85;;;0.70;;
55224;SDS011;41091;49.400;8.684;2022-12-22T03:22:34;1.08;;;0.98;;
55224;SDS011;41091;49.400;8.684;2022-12-22T03:25:18;2.15;;;0.82;;
55224;SDS011;41091;49.400;8.684;2022-12-22T03:28:06;0.80;;;0.80;;
55224;SDS011;41091;49.400;8.684;2022-12-22T03:30:35;1.30;;;0.60;;
55224;SDS011;41091;49.400;8.684;2022-12-22T03:33:00;5.70;;;1.15;;
55224;SDS011;41091;49.400;8.684;2022-12-22T03:35:28;0.82;;;0.73;;
55224;SDS011;41091;49.400;8.684;2022-12-22T03:37:56;0.60;;;0.60;;
55224;SDS011;41091;49.400;8.684;2022-12-22T03:40:30;0.80;;;0.70;;
55224;SDS011;41091;49.400;8.684;2022-12-22T03:42:55;5.25;;;1.17;;
55224;SDS011;41091;49.400;8.684;2022-12-22T03:45:39;0.70;;;0.70;;
55224;SDS011;41091;49.400;8.684;2022-12-22T03:48:24;4.20;;;0.70;;
55224;SDS011;41091;49.400;8.684;2022-12-22T03:50:49;1.08;;;0.77;;
55224;SDS011;41091;49.400;8.684;2022-12-22T03:53:17;1.50;;;0.80;;
55224;SDS011;41091;49.400;8.684;2022-12-22T03:55:42;2.75;;;0.80;;
55224;SDS011;41091;49.400;8.684;2022-12-22T03:58:07;2.78;;;1.42;;
55224;SDS011;41091;49.400;8.684;2022-12-22T04:00:32;1.13;;;1.02;;
55224;SDS011;41091;49.400;8.684;2022-12-22T04:02:58;0.75;;;0.75;;
55224;SDS011;41091;49.400;8.684;2022-12-22T04:05:26;1.45;;;0.90;;
55224;SDS011;41091;49.400;8.684;2022-12-22T04:07:54;2.60;;;0.85;;
55224;SDS011;41091;49.400;8.684;2022-12-22T04:10:19;5.38;;;1.00;;
55224;SDS011;41091;49.400;8.684;2022-12-22T04:13:03;1.33;;;0.75;;
55224;SDS011;41091;49.400;8.684;2022-12-22T04:15:29;1.15;;;1.05;;
55224;SDS011;41091;49.400;8.684;2022-12-22T04:17:58;1.83;;;0.90;;
55224;SDS011;41091;49.400;8.684;2022-12-22T04:20:26;2.40;;;0.73;;
55224;SDS011;41091;49.400;8.684;2022-12-22T04:22:52;3.58;;;0.80;;
55224;SDS011;41091;49.400;8.684;2022-12-22T04:25:18;0.73;;;0.73;;
55224;SDS011;41091;49.400;8.684;2022-12-22T04:27:44;1.60;;;0.70;;
55224;SDS011;41091;49.400;8.684;2022-12-22T04:30:09;1.33;;;0.77;;
55224;SDS011;41091;49.400;8.684;2022-12-22T04:32:38;2.45;;;1.10;;
55224;SDS011;41091;49.400;8.684;2022-12-22T04:35:04;1.67;;;0.80;;
55224;SDS011;41091;49.400;8.684;2022-12-22T04:37:30;1.88;;;1.00;;
55224;SDS011;41091;49.400;8.684;2022-12-22T04:40:00;3.70;;;1.20;;
55224;SDS011;41091;49.400;8.684;2022-12-22T04:42:25;2.35;;;0.70;;
55224;SDS011;41091;49.400;8.684;2022-12-22T04:44:51;1.25;;;0.65;;
55224;SDS011;41091;49.400;8.684;2022-12-22T04:47:16;4.20;;;0.70;;
55224;SDS011;41091;49.400;8.684;2022-12-22T04:49:42;2.25;;;0.75;;
55224;SDS011;41091;49.400;8.684;2022-12-22T04:52:10;5.22;;;1.10;;
55224;SDS011;41091;49.400;8.684;2022-12-22T04:54:35;3.90;;;1.00;;
55224;SDS011;41091;49.400;8.684;2022-12-22T04:57:05;6.57;;;1.00;;
55224;SDS011;41091;49.400;8.684;2022-12-22T04:59:30;1.27;;;0.70;;
55224;SDS011;41091;49.400;8.684;2022-12-22T05:01:56;1.83;;;0.68;;
55224;SDS011;41091;49.400;8.684;2022-12-22T05:04:24;2.85;;;1.15;;
55224;SDS011;41091;49.400;8.684;2022-12-22T05:06:49;3.25;;;1.15;;
55224;SDS011;41091;49.400;8.684;2022-12-22T05:09:14;1.17;;;0.75;;
55224;SDS011;41091;49.400;8.684;2022-12-22T05:11:42;2.90;;;1.63;;
55224;SDS011;41091;49.400;8.684;2022-12-22T05:14:07;3.03;;;0.90;;
55224;SDS011;41091;49.400;8.684;2022-12-22T05:16:33;5.57;;;0.95;;
55224;SDS011;41091;49.400;8.684;2022-12-22T05:18:58;1.52;;;0.95;;
55224;SDS011;41091;49.400;8.684;2022-12-22T05:21:23;4.00;;;0.80;;
55224;SDS011;41091;49.400;8.684;2022-12-22T05:23:49;2.15;;;0.70;;
55224;SDS011;41091;49.400;8.684;2022-12-22T05:26:16;4.90;;;1.20;;
55224;SDS011;41091;49.400;8.684;2022-12-22T05:28:44;2.50;;;0.80;;
55224;SDS011;41091;49.400;8.684;2022-12-22T05:31:14;11.07;;;1.40;;
55224;SDS011;41091;49.400;8.684;2022-12-22T05:33:41;8.52;;;0.85;;
55224;SDS011;41091;49.400;8.684;2022-12-22T05:36:09;7.80;;;0.80;;
55224;SDS011;41091;49.400;8.684;2022-12-22T05:38:34;3.00;;;1.02;;
55224;SDS011;41091;49.400;8.684;2022-12-22T05:40:59;5.50;;;0.90;;
55224;SDS011;41091;49.400;8.684;2022-12-22T05:43:27;1.38;;;0.73;;
55224;SDS011;41091;49.400;8.684;2022-12-22T05:45:55;5.78;;;1.10;;
55224;SDS011;41091;49.400;8.684;2022-12-22T05:48:22;1.25;;;0.80;;
55224;SDS011;41091;49.400;8.684;2022-12-22T05:50:50;4.88;;;1.08;;
55224;SDS011;41091;49.400;8.684;2022-12-22T05:53:15;12.55;;;1.48;;
55224;SDS011;41091;49.400;8.684;2022-12-22T05:55:40;3.15;;;0.80;;
55224;SDS011;41091;49.400;8.684;2022-12-22T05:58:06;3.78;;;1.15;;
55224;SDS011;41091;49.400;8.684;2022-12-22T06:00:33;3.15;;;0.73;;
55224;SDS011;41091;49.400;8.684;2022-12-22T06:02:58;1.90;;;0.80;;
55224;SDS011;41091;49.400;8.684;2022-12-22T06:05:24;4.57;;;1.15;;
55224;SDS011;41091;49.400;8.684;2022-12-22T06:07:49;3.40;;;1.35;;
55224;SDS011;41091;49.400;8.684;2022-12-22T06:10:15;1.75;;;0.63;;
55224;SDS011;41091;49.400;8.684;2022-12-22T06:12:41;3.95;;;1.08;;
55224;SDS011;41091;49.400;8.684;2022-12-22T06:15:07;1.55;;;0.82;;
55224;SDS011;41091;49.400;8.684;2022-12-22T06:17:40;1.92;;;1.20;;
55224;SDS011;41091;49.400;8.684;2022-12-22T06:20:05;3.97;;;0.98;;
55224;SDS011;41091;49.400;8.684;2022-12-22T06:22:32;5.47;;;1.90;;
55224;SDS011;41091;49.400;8.684;2022-12-22T06:24:59;2.45;;;0.80;;
55224;SDS011;41091;49.400;8.684;2022-12-22T06:27:25;5.55;;;1.23;;
55224;SDS011;41091;49.400;8.684;2022-12-22T06:29:50;5.65;;;1.30;;
55224;SDS011;41091;49.400;8.684;2022-12-22T06:32:18;2.92;;;1.30;;
55224;SDS011;41091;49.400;8.684;2022-12-22T06:34:43;1.85;;;1.27;;
55224;SDS011;41091;49.400;8.684;2022-12-22T06:37:08;5.32;;;1.00;;
55224;SDS011;41091;49.400;8.684;2022-12-22T06:39:36;5.03;;;1.15;;
55224;SDS011;41091;49.400;8.684;2022-12-22T06:42:01;8.52;;;1.08;;
55224;SDS011;41091;49.400;8.684;2022-12-22T06:44:45;2.92;;;0.90;;
55224;SDS011;41091;49.400;8.684;2022-12-22T06:47:11;6.00;;;1.70;;
55224;SDS011;41091;49.400;8.684;2022-12-22T06:49:39;3.88;;;1.20;;
55224;SDS011;41091;49.400;8.684;2022-12-22T06:52:06;4.25;;;1.13;;
55224;SDS011;41091;49.400;8.684;2022-12-22T06:54:33;3.70;;;1.15;;
55224;SDS011;41091;49.400;8.684;2022-12-22T06:56:58;8.40;;;1.23;;
55224;SDS011;41091;49.400;8.684;2022-12-22T06:59:23;3.45;;;1.17;;
55224;SDS011;41091;49.400;8.684;2022-12-22T07:01:49;5.15;;;1.35;;
55224;SDS011;41091;49.400;8.684;2022-12-22T07:04:16;4.43;;;1.27;;
55224;SDS011;41091;49.400;8.684;2022-12-22T07:06:48;2.65;;;1.30;;
55224;SDS011;41091;49.400;8.684;2022-12-22T07:09:14;6.07;;;1.15;;
55224;SDS011;41091;49.400;8.684;2022-12-22T07:11:44;7.05;;;1.20;;
55224;SDS011;41091;49.400;8.684;2022-12-22T07:14:09;9.73;;;1.00;;
55224;SDS011;41091;49.400;8.684;2022-12-22T07:16:35;7.82;;;0.98;;
55224;SDS011;41091;49.400;8.684;2022-12-22T07:19:00;1.95;;;0.98;;
55224;SDS011;41091;49.400;8.684;2022-12-22T07:21:26;4.63;;;1.13;;
55224;SDS011;41091;49.400;8.684;2022-12-22T07:23:51;7.03;;;1.60;;
55224;SDS011;41091;49.400;8.684;2022-12-22T07:26:16;4.82;;;1.50;;
55224;SDS011;41091;49.400;8.684;2022-12-22T07:28:44;7.28;;;2.03;;
55224;SDS011;41091;49.400;8.684;2022-12-22T07:31:10;4.03;;;1.13;;
55224;SDS011;41091;49.400;8.684;2022-12-22T07:33:35;5.90;;;2.15;;
55224;SDS011;41091;49.400;8.684;2022-12-22T07:36:14;3.75;;;1.65;;
55224;SDS011;41091;49.400;8.684;2022-12-22T07:38:44;2.58;;;1.08;;
55224;SDS011;41091;49.400;8.684;2022-12-22T07:41:14;6.20;;;1.63;;
55224;SDS011;41091;49.400;8.684;2022-12-22T07:44:02;6.07;;;1.95;;
55224;SDS011;41091;49.400;8.684;2022-12-22T07:46:31;7.63;;;2.00;;
55224;SDS011;41091;49.400;8.684;2022-12-22T07:49:00;15.10;;;3.40;;
55224;SDS011;41091;49.400;8.684;2022-12-22T07:51:45;8.73;;;1.95;;
55224;SDS011;41091;49.400;8.684;2022-12-22T07:54:13;13.45;;;2.10;;
55224;SDS011;41091;49.400;8.684;2022-12-22T07:56:39;8.27;;;2.60;;
55224;SDS011;41091;49.400;8.684;2022-12-22T07:59:07;8.10;;;1.75;;
55224;SDS011;41091;49.400;8.684;2022-12-22T08:01:35;6.82;;;2.20;;
55224;SDS011;41091;49.400;8.684;2022-12-22T08:04:04;2.92;;;1.17;;
55224;SDS011;41091;49.400;8.684;2022-12-22T08:06:31;6.03;;;1.05;;
55224;SDS011;41091;49.400;8.684;2022-12-22T08:08:56;5.40;;;1.67;;
55224;SDS011;41091;49.400;8.684;2022-12-22T08:11:22;10.63;;;2.45;;
55224;SDS011;41091;49.400;8.684;2022-12-22T08:13:47;10.35;;;2.65;;
55224;SDS011;41091;49.400;8.684;2022-12-22T08:16:13;10.23;;;1.40;;
55224;SDS011;41091;49.400;8.684;2022-12-22T08:18:39;7.45;;;1.60;;
55224;SDS011;41091;49.400;8.684;2022-12-22T08:21:05;4.45;;;1.58;;
55224;SDS011;41091;49.400;8.684;2022-12-22T08:23:35;12.80;;;3.85;;
55224;SDS011;41091;49.400;8.684;2022-12-22T08:28:38;4.03;;;1.38;;
55224;SDS011;41091;49.400;8.684;2022-12-22T08:31:09;5.50;;;1.50;;
55224;SDS011;41091;49.400;8.684;2022-12-22T08:33:35;13.85;;;1.98;;
55224;SDS011;41091;49.400;8.684;2022-12-22T08:36:00;11.32;;;2.28;;
55224;SDS011;41091;49.400;8.684;2022-12-22T08:38:26;10.88;;;2.08;;
55224;SDS011;41091;49.400;8.684;2022-12-22T08:40:53;10.77;;;1.90;;
55224;SDS011;41091;49.400;8.684;2022-12-22T08:43:19;16.98;;;2.67;;
55224;SDS011;41091;49.400;8.684;2022-12-22T08:45:45;10.95;;;1.90;;
55224;SDS011;41091;49.400;8.684;2022-12-22T08:48:10;9.70;;;3.03;;
55224;SDS011;41091;49.400;8.684;2022-12-22T08:50:36;12.68;;;2.42;;
55224;SDS011;41091;49.400;8.684;2022-12-22T08:53:02;11.32;;;1.98;;
55224;SDS011;41091;49.400;8.684;2022-12-22T08:55:28;18.38;;;1.75;;
55224;SDS011;41091;49.400;8.684;2022-12-22T08:57:53;9.90;;;2.15;;
55224;SDS011;41091;49.400;8.684;2022-12-22T09:00:18;9.32;;;2.05;;
55224;SDS011;41091;49.400;8.684;2022-12-22T09:02:46;6.65;;;2.22;;
55224;SDS011;41091;49.400;8.684;2022-12-22T09:05:11;10.35;;;1.67;;
55224;SDS011;41091;49.400;8.684;2022-12-22T09:07:37;12.57;;;2.08;;
55224;SDS011;41091;49.400;8.684;2022-12-22T09:10:05;11.20;;;1.98;;
55224;SDS011;41091;49.400;8.684;2022-12-22T09:12:34;15.77;;;2.15;;
55224;SDS011;41091;49.400;8.684;2022-12-22T09:14:59;9.30;;;2.83;;
55224;SDS011;41091;49.400;8.684;2022-12-22T09:17:25;8.50;;;1.90;;
55224;SDS011;41091;49.400;8.684;2022-12-22T09:19:52;5.60;;;1.85;;
55224;SDS011;41091;49.400;8.684;2022-12-22T09:22:18;6.82;;;1.88;;
55224;SDS011;41091;49.400;8.684;2022-12-22T09:24:43;9.77;;;2.58;;
55224;SDS011;41091;49.400;8.684;2022-12-22T09:27:08;5.85;;;0.98;;
55224;SDS011;41091;49.400;8.684;2022-12-22T09:29:36;14.27;;;1.63;;
55224;SDS011;41091;49.400;8.684;2022-12-22T09:32:04;5.53;;;1.95;;
55224;SDS011;41091;49.400;8.684;2022-12-22T09:34:29;11.52;;;1.52;;
55224;SDS011;41091;49.400;8.684;2022-12-22T09:36:55;6.65;;;1.20;;
55224;SDS011;41091;49.400;8.684;2022-12-22T09:39:20;13.18;;;1.55;;
55224;SDS011;41091;49.400;8.684;2022-12-22T09:44:13;13.57;;;2.25;;
55224;SDS011;41091;49.400;8.684;2022-12-22T09:46:41;8.52;;;1.17;;
55224;SDS011;41091;49.400;8.684;2022-12-22T09:49:07;8.68;;;1.40;;
55224;SDS011;41091;49.400;8.684;2022-12-22T09:51:39;8.57;;;1.20;;
55224;SDS011;41091;49.400;8.684;2022-12-22T09:54:08;3.30;;;1.77;;
55224;SDS011;41091;49.400;8.684;2022-12-22T09:56:35;7.15;;;3.72;;
55224;SDS011;41091;49.400;8.684;2022-12-22T09:59:13;7.07;;;2.03;;
55224;SDS011;41091;49.400;8.684;2022-12-22T10:06:59;8.15;;;1.65;;
55224;SDS011;41091;49.400;8.684;2022-12-22T10:09:29;7.07;;;1.65;;
55224;SDS011;41091;49.400;8.684;2022-12-22T10:12:04;4.80;;;1.00;;
55224;SDS011;41091;49.400;8.684;2022-12-22T10:14:35;5.75;;;1.58;;
55224;SDS011;41091;49.400;8.684;2022-12-22T10:17:20;2.83;;;1.35;;
55224;SDS011;41091;49.400;8.684;2022-12-22T10:19:50;4.57;;;1.05;;
55224;SDS011;41091;49.400;8.684;2022-12-22T10:25:37;5.25;;;1.10;;
55224;SDS011;41091;49.400;8.684;2022-12-22T10:28:03;6.07;;;1.13;;
55224;SDS011;41091;49.400;8.684;2022-12-22T10:30:32;4.00;;;1.40;;
55224;SDS011;41091;49.400;8.684;2022-12-22T10:33:10;3.55;;;1.15;;
55224;SDS011;41091;49.400;8.684;2022-12-22T10:35:47;4.75;;;1.25;;
55224;SDS011;41091;49.400;8.684;2022-12-22T10:40:46;1.95;;;0.98;;
55224;SDS011;41091;49.400;8.684;2022-12-22T10:43:30;3.88;;;0.60;;
55224;SDS011;41091;49.400;8.684;2022-12-22T10:46:00;6.80;;;1.02;;
55224;SDS011;41091;49.400;8.684;2022-12-22T10:48:28;4.90;;;1.15;;
55224;SDS011;41091;49.400;8.684;2022-12-22T10:50:54;6.15;;;1.15;;
55224;SDS011;41091;49.400;8.684;2022-12-22T10:56:16;4.65;;;1.15;;
55224;SDS011;41091;49.400;8.684;2022-12-22T10:59:09;6.40;;;1.02;;
55224;SDS011;41091;49.400;8.684;2022-12-22T11:01:41;2.65;;;0.47;;
55224;SDS011;41091;49.400;8.684;2022-12-22T11:06:48;6.18;;;0.95;;
55224;SDS011;41091;49.400;8.684;2022-12-22T11:09:14;2.38;;;0.50;;
55224;SDS011;41091;49.400;8.684;2022-12-22T11:14:45;3.70;;;0.90;;
55224;SDS011;41091;49.400;8.684;2022-12-22T11:28:21;3.30;;;0.55;;
55224;SDS011;41091;49.400;8.684;2022-12-22T11:31:05;2.65;;;0.85;;
55224;SDS011;41091;49.400;8.684;2022-12-22T11:36:32;1.42;;;0.30;;
55224;SDS011;41091;49.400;8.684;2022-12-22T11:39:02;1.73;;;0.60;;
55224;SDS011;41091;49.400;8.684;2022-12-22T11:44:12;2.53;;;0.88;;
55224;SDS011;41091;49.400;8.684;2022-12-22T11:52:30;7.53;;;0.90;;
55224;SDS011;41091;49.400;8.684;2022-12-22T12:06:35;3.08;;;0.68;;
55224;SDS011;41091;49.400;8.684;2022-12-22T12:11:44;7.07;;;1.02;;
55224;SDS011;41091;49.400;8.684;2022-12-22T12:15:17;4.70;;;0.80;;
55224;SDS011;41091;49.400;8.684;2022-12-22T12:25:25;2.58;;;0.50;;
55224;SDS011;41091;49.400;8.684;2022-12-22T12:28:08;1.75;;;0.63;;
55224;SDS011;41091;49.400;8.684;2022-12-22T12:31:00;4.07;;;0.63;;
55224;SDS011;41091;49.400;8.684;2022-12-22T12:36:04;0.45;;;0.45;;
55224;SDS011;41091;49.400;8.684;2022-12-22T12:38:44;0.85;;;0.85;;
55224;SDS011;41091;49.400;8.684;2022-12-22T12:41:21;0.43;;;0.43;;
55224;SDS011;41091;49.400;8.684;2022-12-22T12:43:49;1.90;;;0.73;;
55224;SDS011;41091;49.400;8.684;2022-12-22T12:51:57;0.90;;;0.60;;
55224;SDS011;41091;49.400;8.684;2022-12-22T12:57:01;1.23;;;1.13;;
55224;SDS011;41091;49.400;8.684;2022-12-22T12:59:49;2.35;;;0.70;;
55224;SDS011;41091;49.400;8.684;2022-12-22T13:23:21;2.47;;;0.70;;
55224;SDS011;41091;49.400;8.684;2022-12-22T13:25:48;2.38;;;0.70;;
55224;SDS011;41091;49.400;8.684;2022-12-22T13:28:17;0.45;;;0.45;;
55224;SDS011;41091;49.400;8.684;2022-12-22T13:30:47;0.55;;;0.45;;
55224;SDS011;41091;49.400;8.684;2022-12-22T13:33:15;3.22;;;0.40;;
55224;SDS011;41091;49.400;8.684;2022-12-22T13:35:45;2.53;;;0.50;;
55224;SDS011;41091;49.400;8.684;2022-12-22T13:38:26;0.43;;;0.40;;
55224;SDS011;41091;49.400;8.684;2022-12-22T13:40:58;1.33;;;0.63;;
55224;SDS011;41091;49.400;8.684;2022-12-22T13:43:25;1.73;;;0.80;;
55224;SDS011;41091;49.400;8.684;2022-12-22T13:45:54;5.43;;;1.00;;
55224;SDS011;41091;49.400;8.684;2022-12-22T13:48:23;4.57;;;1.20;;
55224;SDS011;41091;49.400;8.684;2022-12-22T13:50:51;1.60;;;1.10;;
55224;SDS011;41091;49.400;8.684;2022-12-22T13:53:19;1.90;;;1.08;;
55224;SDS011;41091;49.400;8.684;2022-12-22T13:56:00;4.60;;;1.20;;
55224;SDS011;41091;49.400;8.684;2022-12-22T13:58:31;7.93;;;1.45;;
55224;SDS011;41091;49.400;8.684;2022-12-22T14:01:01;7.57;;;3.65;;
55224;SDS011;41091;49.400;8.684;2022-12-22T14:03:44;4.53;;;2.83;;
55224;SDS011;41091;49.400;8.684;2022-12-22T14:06:56;3.47;;;1.52;;
55224;SDS011;41091;49.400;8.684;2022-12-22T14:09:18;2.53;;;0.90;;
55224;SDS011;41091;49.400;8.684;2022-12-22T14:11:53;3.20;;;1.02;;
55224;SDS011;41091;49.400;8.684;2022-12-22T14:14:26;3.00;;;1.13;;
55224;SDS011;41091;49.400;8.684;2022-12-22T14:16:54;3.83;;;1.40;;
55224;SDS011;41091;49.400;8.684;2022-12-22T14:19:20;1.17;;;0.95;;
55224;SDS011;41091;49.400;8.684;2022-12-22T14:21:48;3.00;;;1.35;;
55224;SDS011;41091;49.400;8.684;2022-12-22T14:24:19;2.55;;;0.90;;
55224;SDS011;41091;49.400;8.684;2022-12-22T14:26:51;3.80;;;1.38;;
55224;SDS011;41091;49.400;8.684;2022-12-22T14:29:18;2.83;;;1.15;;
55224;SDS011;41091;49.400;8.684;2022-12-22T14:31:53;6.18;;;0.80;;
55224;SDS011;41091;49.400;8.684;2022-12-22T14:34:29;6.55;;;1.17;;
55224;SDS011;41091;49.400;8.684;2022-12-22T14:36:56;5.32;;;1.33;;
55224;SDS011;41091;49.400;8.684;2022-12-22T14:39:23;5.95;;;1.45;;
55224;SDS011;41091;49.400;8.684;2022-12-22T14:41:53;5.97;;;1.00;;
55224;SDS011;41091;49.400;8.684;2022-12-22T14:49:42;5.85;;;1.13;;
55224;SDS011;41091;49.400;8.684;2022-12-22T14:52:13;3.08;;;1.08;;
55224;SDS011;41091;49.400;8.684;2022-12-22T14:58:09;8.15;;;1.60;;
55224;SDS011;41091;49.400;8.684;2022-12-22T15:03:22;5.85;;;1.30;;
55224;SDS011;41091;49.400;8.684;2022-12-22T15:05:49;2.85;;;0.88;;
55224;SDS011;41091;49.400;8.684;2022-12-22T15:11:10;6.80;;;1.20;;
55224;SDS011;41091;49.400;8.684;2022-12-22T15:13:41;4.13;;;1.10;;
55224;SDS011;41091;49.400;8.684;2022-12-22T15:16:19;3.95;;;1.15;;
55224;SDS011;41091;49.400;8.684;2022-12-22T15:18:45;6.32;;;1.27;;
55224;SDS011;41091;49.400;8.684;2022-12-22T15:21:11;8.35;;;1.35;;
55224;SDS011;41091;49.400;8.684;2022-12-22T15:23:38;7.72;;;1.95;;
55224;SDS011;41091;49.400;8.684;2022-12-22T15:26:03;5.88;;;2.05;;
55224;SDS011;41091;49.400;8.684;2022-12-22T15:28:29;13.63;;;2.45;;
55224;SDS011;41091;49.400;8.684;2022-12-22T15:30:54;6.70;;;2.33;;
55224;SDS011;41091;49.400;8.684;2022-12-22T15:33:22;11.98;;;1.75;;
55224;SDS011;41091;49.400;8.684;2022-12-22T15:35:48;10.13;;;1.98;;
55224;SDS011;41091;49.400;8.684;2022-12-22T15:38:23;11.95;;;2.03;;
55224;SDS011;41091;49.400;8.684;2022-12-22T15:40:54;6.10;;;1.75;;
55224;SDS011;41091;49.400;8.684;2022-12-22T15:43:24;11.43;;;2.60;;
55224;SDS011;41091;49.400;8.684;2022-12-22T15:45:49;15.60;;;2.20;;
55224;SDS011;41091;49.400;8.684;2022-12-22T15:48:20;10.32;;;2.70;;
55224;SDS011;41091;49.400;8.684;2022-12-22T15:50:50;15.07;;;3.03;;
55224;SDS011;41091;49.400;8.684;2022-12-22T15:53:16;12.20;;;3.00;;
55224;SDS011;41091;49.400;8.684;2022-12-22T15:55:44;10.05;;;3.05;;
55224;SDS011;41091;49.400;8.684;2022-12-22T15:58:14;9.85;;;2.65;;
55224;SDS011;41091;49.400;8.684;2022-12-22T16:00:41;10.35;;;2.20;;
55224;SDS011;41091;49.400;8.684;2022-12-22T16:03:08;16.17;;;3.13;;
55224;SDS011;41091;49.400;8.684;2022-12-22T16:05:34;18.98;;;3.63;;
55224;SDS011;41091;49.400;8.684;2022-12-22T16:08:01;22.55;;;3.55;;
55224;SDS011;41091;49.400;8.684;2022-12-22T16:10:28;19.00;;;4.28;;
55224;SDS011;41091;49.400;8.684;2022-12-22T16:12:56;15.18;;;3.17;;
55224;SDS011;41091;49.400;8.684;2022-12-22T16:15:25;18.15;;;3.38;;
55224;SDS011;41091;49.400;8.684;2022-12-22T16:17:57;22.10;;;4.22;;
55224;SDS011;41091;49.400;8.684;2022-12-22T16:20:27;18.83;;;3.08;;
55224;SDS011;41091;49.400;8.684;2022-12-22T16:23:00;16.00;;;3.08;;
55224;SDS011;41091;49.400;8.684;2022-12-22T16:25:30;23.70;;;3.42;;
55224;SDS011;41091;49.400;8.684;2022-12-22T16:27:58;16.00;;;3.67;;
55224;SDS011;41091;49.400;8.684;2022-12-22T16:30:28;32.95;;;4.75;;
55224;SDS011;41091;49.400;8.684;2022-12-22T16:32:54;28.35;;;3.80;;
55224;SDS011;41091;49.400;8.684;2022-12-22T16:35:21;30.17;;;4.30;;
55224;SDS011;41091;49.400;8.684;2022-12-22T16:37:50;44.83;;;6.80;;
55224;SDS011;41091;49.400;8.684;2022-12-22T16:40:16;21.45;;;4.60;;
55224;SDS011;41091;49.400;8.684;2022-12-22T16:42:51;31.52;;;4.53;;
55224;SDS011;41091;49.400;8.684;2022-12-22T16:45:24;35.22;;;4.60;;
55224;SDS011;41091;49.400;8.684;2022-12-22T16:47:52;21.50;;;4.43;;
55224;SDS011;41091;49.400;8.684;2022-12-22T16:50:21;32.55;;;4.18;;
55224;SDS011;41091;49.400;8.684;2022-12-22T16:52:49;30.25;;;4.35;;
55224;SDS011;41091;49.400;8.684;2022-12-22T16:55:19;22.38;;;4.03;;
55224;SDS011;41091;49.400;8.684;2022-12-22T16:57:46;19.55;;;3.45;;
55224;SDS011;41091;49.400;8.684;2022-12-22T17:00:18;22.55;;;3.65;;
55224;SDS011;41091;49.400;8.684;2022-12-22T17:02:59;31.73;;;4.78;;
55224;SDS011;41091;49.400;8.684;2022-12-22T17:07:58;23.63;;;4.55;;
55224;SDS011;41091;49.400;8.684;2022-12-22T17:10:24;31.92;;;4.10;;
55224;SDS011;41091;49.400;8.684;2022-12-22T17:12:50;19.83;;;4.22;;
55224;SDS011;41091;49.400;8.684;2022-12-22T17:15:20;33.13;;;4.82;;
55224;SDS011;41091;49.400;8.684;2022-12-22T17:17:46;26.95;;;4.22;;
55224;SDS011;41091;49.400;8.684;2022-12-22T17:20:16;26.88;;;4.40;;
55224;SDS011;41091;49.400;8.684;2022-12-22T17:22:49;29.88;;;4.25;;
55224;SDS011;41091;49.400;8.684;2022-12-22T17:25:21;35.08;;;5.18;;
55224;SDS011;41091;49.400;8.684;2022-12-22T17:27:50;27.70;;;4.80;;
55224;SDS011;41091;49.400;8.684;2022-12-22T17:30:19;33.97;;;5.47;;
55224;SDS011;41091;49.400;8.684;2022-12-22T17:32:46;30.42;;;4.60;;
55224;SDS011;41091;49.400;8.684;2022-12-22T17:35:13;16.48;;;3.88;;
55224;SDS011;41091;49.400;8.684;2022-12-22T17:37:42;26.40;;;4.88;;
55224;SDS011;41091;49.400;8.684;2022-12-22T17:42:45;25.27;;;4.05;;
55224;SDS011;41091;49.400;8.684;2022-12-22T17:45:14;25.02;;;3.75;;
55224;SDS011;41091;49.400;8.684;2022-12-22T17:47:40;20.55;;;4.38;;